Latest Weather Observations for Halls Creek

IDW60801

Issued at 11:33 pm WST Friday 20 January 2017 (issued every 30 minutes, with the page automatically refreshed every 10 minutes)

About weather observations | Map of weather stations | Latest weather observations for WA | Other Formats
Station Details ID: 002079 Name: HALLS CREEK AIRPORT Lat: -18.23 Lon: 127.67 Height: 422.0 m
Data from the previous 72 hours. | See also: Recent months at Halls Creek
Date/Time
WST
Temp
°C
App
Temp
°C
Dew
Point
°C
Rel
Hum
%
Delta-T
°C
Wind Press
QNH
hPa
Press
MSL
hPa
Rain since
9am
mm
Dir  Spd
km/h
Gust
km/h
Spd
kts
Gust
kts
20/11:30pm 24.0 27.6 22.3 90 1.2 NNW 7 9 4 5 1009.2 1005.9 43.8
20/11:00pm 24.0 27.6 22.3 90 1.2 NNW 7 11 4 6 1009.5 1006.2 43.8
20/10:30pm 24.1 27.2 22.2 89 1.3 N 9 13 5 7 1009.7 1006.4 43.8
20/10:00pm 24.1 27.7 22.4 90 1.2 N 7 9 4 5 1009.8 1006.5 43.8
20/09:30pm 24.2 27.7 22.1 88 1.4 N 7 9 4 5 1009.6 1006.3 43.8
20/09:00pm 24.2 26.8 21.9 87 1.6 WNW 11 19 6 10 1009.2 1005.9 43.8
20/08:30pm 24.0 26.8 22.3 90 1.2 W 11 20 6 11 1008.8 1005.4 43.8
20/08:00pm 23.5 25.1 22.1 92 0.9 NW 17 24 9 13 1008.6 1005.2 43.8
20/07:30pm 23.9 25.3 22.5 92 1.0 NW 19 28 10 15 1008.5 1005.1 43.8
20/07:00pm 24.2 26.0 22.6 91 1.1 W 17 30 9 16 1008.1 1004.7 41.6
20/06:30pm 23.8 26.7 23.1 96 0.5 SW 13 15 7 8 1007.7 1004.3 38.8
20/06:00pm 23.7 27.4 23.2 97 0.3 SW 9 11 5 6 1007.7 1004.3 37.0
20/05:55pm 23.5 27.1 23.0 97 0.3 WSW 9 11 5 6 1007.6 1004.2 36.8
20/05:30pm 23.6 27.6 23.1 97 0.3 NW 7 9 4 5 1007.9 1004.5 30.6
20/05:00pm 24.1 27.8 23.2 95 0.6 NNW 9 17 5 9 1007.4 1004.0 17.6
20/04:58pm 24.2 27.9 23.3 95 0.6 N 9 17 5 9 1007.4 1004.0 16.4
20/04:30pm 24.4 26.8 23.7 96 0.5 WSW 17 24 9 13 1006.2 1002.8 13.4
20/04:02pm 24.1 24.5 22.5 91 1.1 SSW 24 33 13 18 1005.4 1002.0 13.0
20/04:00pm 24.3 25.0 22.2 88 1.4 SSW 22 33 12 18 1005.3 1001.9 13.0
20/03:38pm 24.6 27.3 22.8 90 1.2 W 13 22 7 12 1005.4 1002.0 10.8
20/03:30pm 25.0 25.9 22.7 87 1.6 NNW 22 37 12 20 1005.5 1002.1 8.2
20/03:20pm 26.7 28.6 22.1 76 3.1 NW 15 33 8 18 1005.1 1001.7 3.4
20/03:00pm 32.1 34.4 21.3 53 7.4 WNW 11 19 6 10 1004.6 1001.3 0.2
20/02:30pm 32.3 35.9 23.0 58 6.5 WSW 9 17 5 9 1005.0 1001.6 0.2
20/02:00pm 31.3 33.7 23.7 64 5.4 W 17 24 9 13 1005.5 1002.1 0.0
20/01:30pm 31.9 35.7 23.4 60 6.0 WSW 9 17 5 9 1005.6 1002.2 0.0
20/01:00pm 30.7 33.8 22.8 62 5.5 NW 11 17 6 9 1006.3 1002.9 0.0
20/12:30pm 30.8 32.9 21.0 56 6.6 N 11 17 6 9 1006.8 1003.5 0.0
20/12:00pm 31.4 33.4 21.6 56 6.7 NNW 13 17 7 9 1007.4 1004.0 0.0
20/11:30am 30.2 32.2 22.9 65 5.1 NE 17 20 9 11 1007.7 1004.3 0.0
20/11:00am 29.4 31.1 21.6 63 5.3 NW 15 22 8 12 1008.1 1004.7 0.0
20/10:30am 29.7 32.6 22.4 65 5.0 NNW 11 20 6 11 1008.4 1005.0 0.0
20/10:00am 29.6 31.5 21.3 61 5.6 NNW 13 19 7 10 1008.7 1005.3 0.0
20/09:30am 28.7 30.7 21.5 65 4.9 NW 13 22 7 12 1008.9 1005.6 0.0
20/09:00am 28.0 29.6 20.8 65 4.8 NNW 13 17 7 9 1009.1 1005.8 35.6
20/08:30am 27.2 29.8 21.9 73 3.6 NW 11 20 6 11 1009.3 1006.0 35.6
20/08:00am 26.6 29.7 22.9 80 2.6 NW 11 17 6 9 1009.4 1006.1 35.6
20/07:44am 25.6 28.4 22.3 82 2.2 NNW 11 17 6 9 1009.4 1006.1 35.6
20/07:30am 25.3 27.9 22.6 85 1.8 NNW 13 22 7 12 1009.5 1006.2 35.6
20/07:05am 25.0 27.6 22.7 87 1.6 NNW 13 20 7 11 1009.2 1005.9 35.6
20/07:00am 24.9 28.1 23.0 89 1.3 NNW 11 17 6 9 1009.1 1005.8 35.6
20/06:30am 24.5 27.6 22.9 91 1.1 NNW 11 17 6 9 1008.8 1005.4 35.6
20/06:00am 24.0 27.8 22.8 93 0.8 N 7 11 4 6 1008.2 1004.8 35.6
20/05:30am 23.6 27.4 22.8 95 0.5 NNW 7 11 4 6 1007.9 1004.5 35.6
20/05:00am 23.5 27.3 22.8 96 0.5 NNW 7 9 4 5 1007.6 1004.2 35.6
20/04:30am 23.6 27.1 22.8 95 0.5 N 9 11 5 6 1007.4 1004.0 35.6
20/04:00am 23.6 27.5 22.9 96 0.5 NNW 7 11 4 6 1007.2 1003.9 35.6
20/03:30am 23.5 27.3 22.8 96 0.5 N 7 9 4 5 1007.4 1004.0 35.6
20/03:00am 23.6 27.5 22.9 96 0.5 NNW 7 13 4 7 1007.6 1004.2 35.4
20/02:30am 23.5 27.5 22.8 96 0.5 NNW 6 11 3 6 1007.7 1004.3 35.4
20/02:00am 23.5 27.6 23.0 97 0.3 NNW 6 7 3 4 1007.9 1004.5 35.4
20/01:30am 23.5 27.3 22.8 96 0.5 NNW 7 9 4 5 1007.9 1004.5 35.0
20/01:00am 23.6 27.8 23.1 97 0.3 N 6 7 3 4 1008.2 1004.8 34.4
20/12:30am 23.6 27.7 22.9 96 0.5 NNE 6 7 3 4 1008.3 1004.9 34.2
20/12:00am 23.7 27.6 22.9 95 0.5 NNE 7 9 4 5 1008.7 1005.3 33.8
 
Date/Time
WST
Temp
°C
App
Temp
°C
Dew
Point
°C
Rel
Hum
%
Delta-T
°C
Wind Press
QNH
hPa
Press
MSL
hPa
Rain since
9am
mm
Dir  Spd
km/h
Gust
km/h
Spd
kts
Gust
kts
19/11:30pm 23.8 27.3 22.8 94 0.7 N 9 11 5 6 1008.7 1005.3 33.2
19/11:00pm 23.9 27.6 22.5 92 1.0 N 7 9 4 5 1009.0 1005.7 33.0
19/10:30pm 24.0 27.2 22.4 91 1.1 NNW 9 11 5 6 1009.3 1006.0 33.0
19/10:00pm 24.2 28.2 22.8 92 1.0 NNW 6 9 3 5 1009.4 1006.1 33.0
19/09:30pm 24.3 27.9 23.1 93 0.8 NNW 9 13 5 7 1009.3 1006.0 33.0
19/09:00pm 24.3 27.9 23.1 93 0.8 NW 9 15 5 8 1009.3 1006.0 33.0
19/08:30pm 24.1 27.3 23.1 94 0.7 NW 11 15 6 8 1008.6 1005.2 33.0
19/08:00pm 23.9 27.4 22.9 94 0.7 WNW 9 13 5 7 1008.6 1005.2 33.0
19/07:30pm 23.8 28.6 22.8 94 0.7 NW 2 7 1 4 1008.6 1005.2 32.4
19/07:00pm 23.5 26.5 22.7 95 0.5 WSW 11 15 6 8 1007.5 1004.1 32.0
19/06:33pm 23.1 25.9 22.3 95 0.5 W 11 15 6 8 1007.7 1004.3 31.2
19/06:30pm 23.1 25.5 22.3 95 0.5 W 13 19 7 10 1007.7 1004.3 31.0
19/06:00pm 23.1 23.2 22.6 97 0.3 W 26 37 14 20 1007.9 1004.5 22.6
19/05:49pm 23.2 22.1 22.5 96 0.5 WNW 32 44 17 24 1007.5 1004.1 15.6
19/05:30pm 24.5 24.0 22.8 90 1.2 NW 30 46 16 25 1006.7 1003.4 4.6
19/05:26pm 24.8 25.2 22.5 87 1.6 NW 24 46 13 25 1006.6 1003.3 4.6
19/05:00pm 25.4 24.7 22.5 84 2.0 W 30 43 16 23 1006.0 1002.6 1.6
19/04:51pm 26.0 26.4 21.7 77 2.9 W 22 35 12 19 1006.0 1002.6 0.6
19/04:30pm 31.0 33.8 21.5 57 6.5 WNW 9 15 5 8 1005.5 1002.1 0.0
19/04:00pm 32.5 34.4 21.4 52 7.6 WNW 13 19 7 10 1005.2 1001.8 0.0
19/03:30pm 32.0 34.0 21.5 53 7.2 NNW 13 22 7 12 1005.3 1001.9 0.0
19/03:00pm 30.8 33.9 22.1 59 6.0 SW 9 13 5 7 1005.9 1002.5 0.0
19/02:30pm 30.2 31.2 21.0 58 6.2 WSW 17 26 9 14 1006.3 1002.9 0.0
19/02:00pm 30.9 32.3 21.1 56 6.7 NW 15 26 8 14 1006.6 1003.3 0.0
19/01:30pm 31.4 33.0 22.1 57 6.4 WNW 17 24 9 13 1007.1 1003.8 0.0
19/01:00pm 30.7 31.7 21.8 59 6.1 WNW 19 28 10 15 1007.8 1004.4 0.0
19/12:30pm 30.4 31.9 21.2 58 6.2 WNW 15 24 8 13 1008.3 1004.9 0.0
19/12:00pm 29.7 31.9 21.9 63 5.3 NW 13 20 7 11 1008.8 1005.4 0.0
19/11:30am 29.2 30.8 21.4 63 5.3 NW 15 20 8 11 1009.2 1005.9 0.0
19/11:00am 29.2 30.6 21.9 64 5.0 NW 17 28 9 15 1009.5 1006.2 0.0
19/10:30am 29.3 31.9 22.0 64 5.0 NNW 11 20 6 11 1009.8 1006.5 0.0
19/10:00am 27.8 30.0 21.8 70 4.1 NW 13 22 7 12 1010.2 1006.8 0.0
19/09:30am 27.3 29.9 22.7 76 3.2 NNW 13 19 7 10 1010.3 1006.9 0.0
19/09:00am 26.1 28.4 22.0 78 2.8 NNW 13 20 7 11 1010.4 1007.0 35.6
19/08:30am 25.3 27.5 21.8 81 2.4 NW 13 22 7 12 1010.8 1007.4 35.6
19/08:00am 25.0 26.6 21.5 81 2.4 NW 15 24 8 13 1010.9 1007.5 35.6
19/07:30am 25.0 26.9 22.1 84 2.0 WNW 15 20 8 11 1011.1 1007.8 35.6
19/07:00am 24.7 26.8 22.4 87 1.6 WNW 15 20 8 11 1010.9 1007.5 35.6
19/06:30am 23.9 27.2 22.5 92 1.0 WNW 9 13 5 7 1010.8 1007.4 35.6
19/06:00am 23.5 27.2 22.5 94 0.7 NW 7 11 4 6 1010.7 1007.3 35.6
19/05:30am 23.3 26.5 22.3 94 0.7 WNW 9 11 5 6 1010.4 1007.0 35.6
19/05:00am 23.3 26.0 22.1 93 0.8 NW 11 15 6 8 1009.8 1006.5 35.6
19/04:48am 23.4 26.6 22.4 94 0.7 NW 9 13 5 7 1009.5 1006.2 35.6
19/04:35am 23.5 27.2 22.5 94 0.7 NNW 7 11 4 6 1009.5 1006.2 35.6
19/04:30am 23.5 27.3 22.7 95 0.5 NNW 7 11 4 6 1009.5 1006.2 35.6
19/04:00am 23.5 27.3 22.7 95 0.5 N 7 11 4 6 1009.2 1005.9 35.6
19/03:30am 23.5 27.0 22.8 96 0.5 N 9 11 5 6 1008.9 1005.6 35.6
19/03:00am 23.5 27.3 22.8 96 0.5 N 7 9 4 5 1009.0 1005.7 35.6
19/02:30am 23.4 27.2 22.7 96 0.5 NNE 7 9 4 5 1009.2 1005.9 35.6
19/02:00am 23.4 27.4 22.7 96 0.5 NNW 6 7 3 4 1009.2 1005.9 35.6
19/01:30am 23.5 27.4 23.0 97 0.3 N 7 9 4 5 1009.5 1006.2 35.6
19/01:00am 23.6 27.5 22.9 96 0.5 N 7 9 4 5 1009.7 1006.4 35.6
19/12:30am 23.7 27.8 23.0 96 0.5 NNW 6 7 3 4 1009.8 1006.5 35.6
19/12:00am 23.7 27.8 23.0 96 0.5 NNE 6 9 3 5 1010.1 1006.7 35.6
 
Date/Time
WST
Temp
°C
App
Temp
°C
Dew
Point
°C
Rel
Hum
%
Delta-T
°C
Wind Press
QNH
hPa
Press
MSL
hPa
Rain since
9am
mm
Dir  Spd
km/h
Gust
km/h
Spd
kts
Gust
kts
18/11:30pm 23.5 27.5 22.8 96 0.5 WNW 6 9 3 5 1010.1 1006.7 35.6
18/11:00pm 23.6 27.5 22.9 96 0.5 WNW 7 9 4 5 1010.3 1006.9 35.4
18/10:30pm 23.6 26.7 22.8 95 0.5 W 11 19 6 10 1010.7 1007.3 35.2
18/10:00pm 23.6 27.1 22.9 96 0.5 WNW 9 13 5 7 1010.7 1007.3 34.8
18/09:30pm 23.7 27.3 23.0 96 0.5 NW 9 13 5 7 1010.9 1007.5 34.0
18/09:00pm 23.7 27.3 23.0 96 0.5 N 9 11 5 6 1010.7 1007.3 33.4
18/08:30pm 23.6 27.1 22.9 96 0.5 N 9 11 5 6 1010.3 1006.9 32.6
18/08:00pm 23.8 27.9 23.3 97 0.3 N 7 9 4 5 1009.8 1006.5 30.6
18/07:30pm 23.6 27.5 22.9 96 0.5 NW 7 11 4 6 1009.4 1006.1 29.6
18/07:00pm 23.5 26.5 22.7 95 0.5 NW 11 15 6 8 1009.3 1006.0 28.6
18/06:30pm 23.9 27.8 23.0 95 0.6 WNW 7 17 4 9 1009.0 1005.7 27.2
18/06:00pm 23.6 26.5 23.1 97 0.3 WSW 13 20 7 11 1008.7 1005.3 26.4
18/05:45pm 23.5 25.4 22.8 96 0.5 WSW 17 26 9 14 1008.5 1005.1 24.8
18/05:30pm 23.7 24.8 22.3 92 0.9 W 20 35 11 19 1008.3 1004.9 23.4
18/05:06pm 24.5 27.3 23.6 95 0.6 WSW 15 22 8 12 1007.7 1004.3 22.6
18/05:00pm 24.7 27.6 23.8 95 0.6 WSW 15 22 8 12 1007.6 1004.2 21.2
18/04:30pm 24.8 27.7 23.8 94 0.7 WSW 15 20 8 11 1007.2 1003.9 19.4
18/04:00pm 24.3 26.5 23.3 94 0.7 W 17 28 9 15 1007.1 1003.8 19.4
18/03:31pm 23.9 25.3 22.9 94 0.7 WNW 20 28 11 15 1006.9 1003.6 19.4
18/03:30pm 23.8 25.2 22.8 94 0.7 WNW 20 28 11 15 1006.9 1003.6 19.4
18/03:00pm 24.2 25.1 23.3 95 0.6 N 24 35 13 19 1006.9 1003.6 14.0
18/02:58pm 24.1 24.5 23.2 95 0.6 N 26 41 14 22 1006.9 1003.6 13.0
18/02:42pm 26.3 27.3 22.8 81 2.4 NNW 22 39 12 21 1006.5 1003.1 0.0
18/02:30pm 31.3 33.3 21.5 56 6.7 WSW 13 22 7 12 1006.0 1002.6 0.0
18/02:00pm 31.4 33.0 22.1 57 6.4 W 17 24 9 13 1006.3 1002.9 0.0
18/01:30pm 31.3 33.5 21.8 57 6.5 WNW 13 22 7 12 1006.6 1003.3 0.0
18/01:00pm 31.4 33.6 21.8 56 6.6 NW 13 22 7 12 1007.0 1003.7 0.0
18/12:30pm 31.0 32.1 21.2 56 6.7 NW 17 24 9 13 1007.6 1004.2 0.0
18/12:00pm 30.3 31.4 21.9 60 5.8 WNW 19 30 10 16 1008.1 1004.7 0.0
18/11:30am 29.9 31.5 22.1 63 5.4 WNW 17 24 9 13 1008.5 1005.1 0.0
18/11:00am 29.2 30.8 22.2 66 4.8 NW 17 28 9 15 1008.9 1005.6 0.0
18/10:30am 28.5 30.0 22.0 68 4.4 WNW 17 26 9 14 1009.4 1006.1 0.0
18/10:00am 28.0 29.5 22.0 70 4.1 WNW 17 28 9 15 1009.6 1006.3 0.0
18/09:30am 28.7 29.9 22.2 68 4.5 WNW 19 28 10 15 1010.1 1006.7 0.0
18/09:00am 27.7 29.3 22.2 72 3.8 NW 17 28 9 15 1010.1 1006.7 32.6
18/08:30am 27.6 29.9 22.8 75 3.3 NW 15 19 8 10 1010.3 1006.9 32.6
18/08:00am 25.9 28.4 22.4 81 2.4 NW 13 20 7 11 1010.4 1007.0 32.6
18/07:30am 25.4 27.7 22.1 82 2.2 NW 13 19 7 10 1010.2 1006.8 32.6
18/07:00am 24.8 27.4 21.9 84 2.0 NW 11 17 6 9 1010.2 1006.8 32.6
18/06:30am 24.7 28.1 22.0 85 1.8 NNW 7 11 4 6 1010.1 1006.7 32.6
18/06:00am 24.2 27.4 21.7 86 1.7 NW 7 11 4 6 1009.7 1006.4 32.6
18/05:30am 23.8 26.2 21.5 87 1.5 WNW 11 15 6 8 1009.5 1006.2 32.6
18/05:00am 23.6 26.8 21.7 89 1.3 WNW 7 11 4 6 1009.2 1005.9 32.6
18/04:30am 23.7 26.9 21.6 88 1.4 NW 7 9 4 5 1008.9 1005.6 32.6
18/04:00am 23.6 26.8 21.7 89 1.3 WNW 7 11 4 6 1008.5 1005.1 32.6
18/03:30am 23.6 26.8 21.7 89 1.3 W 7 11 4 6 1008.1 1004.7 32.6
18/03:00am 23.5 26.4 21.8 90 1.1 WNW 9 15 5 8 1008.1 1004.7 32.6
18/02:30am 23.6 26.5 21.7 89 1.3 WNW 9 13 5 7 1008.2 1004.8 32.6
18/02:00am 23.8 26.3 21.7 88 1.4 WNW 11 15 6 8 1008.3 1004.9 32.6
18/01:30am 23.8 26.2 21.5 87 1.5 W 11 13 6 7 1008.0 1004.6 32.6
18/01:00am 24.2 26.7 21.7 86 1.7 WNW 11 17 6 9 1008.1 1004.7 32.6
18/12:30am 24.2 26.8 21.9 87 1.6 WNW 11 17 6 9 1008.4 1005.0 32.6
18/12:00am 24.3 26.3 22.2 88 1.4 NW 15 24 8 13 1008.4 1005.0 32.6

Other Formats:

Comma delimited format used in spreadsheet applications
http://www.bom.gov.au/fwo/IDW60801/IDW60801.94212.axf

JavaScript Object Notation format (JSON) in row-major order
http://www.bom.gov.au/fwo/IDW60801/IDW60801.94212.json